createdAt,value
2022-10-12T00:00:41.022Z,98713.47
2022-10-12T00:03:30.515Z,98716.97
2022-10-12T00:06:30.868Z,98719.09
2022-10-12T00:09:14.523Z,98709.81
2022-10-12T00:12:09.432Z,98715.69
2022-10-12T00:14:59.523Z,98719.00
2022-10-12T00:17:41.770Z,98718.84
2022-10-12T00:20:30.564Z,98716.81
2022-10-12T00:23:13.778Z,98727.97
2022-10-12T00:26:02.510Z,98727.38
2022-10-12T00:28:44.892Z,98725.53
2022-10-12T00:31:34.538Z,98729.84
2022-10-12T00:34:17.816Z,98734.50
2022-10-12T00:37:06.497Z,98750.09
2022-10-12T00:39:55.568Z,98738.66
2022-10-12T00:42:37.702Z,98745.41
2022-10-12T00:45:27.537Z,98742.41
2022-10-12T00:48:16.770Z,98748.41
2022-10-12T00:50:59.527Z,98745.69
2022-10-12T00:53:53.836Z,98747.25
2022-10-12T00:56:40.787Z,98744.78
2022-10-12T00:59:35.544Z,98746.13
2022-10-12T01:02:18.787Z,98744.47
2022-10-12T01:05:08.528Z,98762.81
2022-10-12T01:07:50.785Z,98762.25
2022-10-12T01:10:39.531Z,98762.09
2022-10-12T01:13:22.782Z,98764.78
2022-10-12T01:16:28.476Z,98765.84
2022-10-12T01:19:25.418Z,98770.78
2022-10-12T01:22:18.556Z,98770.19
2022-10-12T01:25:08.821Z,98775.59
2022-10-12T01:28:01.557Z,98784.84
2022-10-12T01:30:51.855Z,98786.75
2022-10-12T01:33:56.515Z,98791.81
2022-10-12T01:36:55.552Z,98807.47
2022-10-12T01:39:47.470Z,98808.16
2022-10-12T01:42:44.549Z,98816.81
2022-10-12T01:45:33.793Z,98813.16
2022-10-12T01:48:15.510Z,98819.44
2022-10-12T01:51:08.781Z,98823.22
2022-10-12T01:54:06.496Z,98817.50
2022-10-12T01:57:12.423Z,98817.66
2022-10-12T02:00:21.493Z,98826.44
2022-10-12T02:03:23.384Z,98835.94
2022-10-12T02:06:21.488Z,98831.72
2022-10-12T02:09:12.314Z,98836.56
2022-10-12T02:12:05.567Z,98836.50
2022-10-12T02:14:52.336Z,98831.28
2022-10-12T02:17:41.591Z,98837.06
2022-10-12T02:20:32.798Z,98832.63
2022-10-12T02:23:17.572Z,98843.00
2022-10-12T02:26:10.710Z,98841.81
2022-10-12T02:28:53.755Z,98854.84
2022-10-12T02:32:04.784Z,98856.53
2022-10-12T02:34:55.563Z,98866.38
2022-10-12T02:38:09.783Z,98857.94
2022-10-12T02:41:00.497Z,98864.47
2022-10-12T02:44:14.405Z,98873.34
2022-10-12T02:47:04.496Z,98872.25
2022-10-12T02:49:55.406Z,98879.00
2022-10-12T02:52:46.496Z,98880.59
2022-10-12T02:55:37.408Z,98882.19
2022-10-12T02:58:26.510Z,98885.22
2022-10-12T03:01:15.581Z,98885.38
2022-10-12T03:03:57.796Z,98891.38
2022-10-12T03:06:46.494Z,98892.97
2022-10-12T03:09:35.498Z,98895.97
2022-10-12T03:12:24.383Z,98903.44
2022-10-12T03:15:13.535Z,98905.06
2022-10-12T03:18:01.807Z,98908.53
2022-10-12T03:20:44.503Z,98917.03
2022-10-12T03:23:26.766Z,98916.28
2022-10-12T03:26:15.542Z,98919.72
2022-10-12T03:29:04.824Z,98919.72
2022-10-12T03:31:48.518Z,98918.94
2022-10-12T03:34:36.770Z,98922.56
2022-10-12T03:37:18.495Z,98925.75
2022-10-12T03:40:06.871Z,98926.84
2022-10-12T03:42:49.507Z,98924.34
2022-10-12T03:45:37.781Z,98924.75
2022-10-12T03:48:20.512Z,98928.81
2022-10-12T03:51:09.505Z,98926.00
2022-10-12T03:53:51.786Z,98931.69
2022-10-12T03:56:40.553Z,98932.47
2022-10-12T03:59:22.786Z,98936.56
2022-10-12T04:02:16.535Z,98928.69
2022-10-12T04:05:05.485Z,98936.25
2022-10-12T04:07:54.508Z,98938.97
2022-10-12T04:10:36.811Z,98937.22
2022-10-12T04:13:26.513Z,98936.19
2022-10-12T04:16:20.475Z,98942.03
2022-10-12T04:19:09.517Z,98934.59
2022-10-12T04:21:51.805Z,98955.03
2022-10-12T04:24:40.495Z,98950.47
2022-10-12T04:27:22.797Z,98953.03
2022-10-12T04:30:11.500Z,98953.59
2022-10-12T04:32:53.809Z,98954.44
2022-10-12T04:35:42.514Z,98962.69
2022-10-12T04:38:24.820Z,98955.38
2022-10-12T04:41:13.524Z,98955.22
2022-10-12T04:43:55.778Z,98958.34
2022-10-12T04:46:44.514Z,98956.91
2022-10-12T04:49:26.804Z,98959.63
2022-10-12T04:52:15.565Z,98961.31
2022-10-12T04:54:57.806Z,98961.59
2022-10-12T04:57:46.504Z,98964.75
2022-10-12T05:00:35.572Z,98965.38
2022-10-12T05:03:23.790Z,98961.75
2022-10-12T05:06:12.588Z,98962.25
2022-10-12T05:08:54.784Z,98961.50
2022-10-12T05:11:43.501Z,98966.22
2022-10-12T05:14:25.811Z,98958.41
2022-10-12T05:17:14.555Z,98961.22
2022-10-12T05:19:56.790Z,98955.72
2022-10-12T05:22:45.579Z,98947.69
2022-10-12T05:25:30.333Z,98946.53
2022-10-12T05:28:19.566Z,98939.53
2022-10-12T05:31:01.810Z,98947.13
2022-10-12T05:33:50.575Z,98940.34
2022-10-12T05:36:32.802Z,98946.31
2022-10-12T05:39:21.556Z,98948.41
2022-10-12T05:42:03.755Z,98945.41
2022-10-12T05:44:52.506Z,98940.72
2022-10-12T05:47:41.522Z,98941.53
2022-10-12T05:50:31.594Z,98942.63
2022-10-12T05:53:14.960Z,98942.03
2022-10-12T05:56:07.884Z,98929.09
2022-10-12T05:58:50.529Z,98940.47
2022-10-12T06:01:39.568Z,98936.03
2022-10-12T06:04:21.903Z,98930.28
2022-10-12T06:07:10.521Z,98929.94
2022-10-12T06:09:52.882Z,98920.44
2022-10-12T06:12:41.465Z,98922.34
2022-10-12T06:15:23.748Z,98921.00
2022-10-12T06:18:12.542Z,98921.28
2022-10-12T06:24:05.500Z,98918.63
2022-10-12T06:26:47.799Z,98915.94
2022-10-12T06:29:36.572Z,98916.41
2022-10-12T06:32:18.790Z,98912.03
2022-10-12T06:35:07.515Z,98899.44
2022-10-12T06:37:56.772Z,98894.91
2022-10-12T06:40:45.564Z,98895.72
2022-10-12T06:43:28.778Z,98886.81
2022-10-12T06:46:17.530Z,98885.09
2022-10-12T06:48:59.839Z,98885.91
2022-10-12T06:51:48.490Z,98887.72
2022-10-12T06:54:30.957Z,98879.91
2022-10-12T06:57:19.516Z,98876.09
2022-10-12T07:00:01.763Z,98868.09
2022-10-12T07:02:50.498Z,98860.72
2022-10-12T07:05:46.364Z,98865.28
2022-10-12T07:08:35.586Z,98858.19
2022-10-12T07:11:20.773Z,98853.50
2022-10-12T07:14:09.477Z,98851.31
2022-10-12T07:16:58.392Z,98850.28
2022-10-12T07:19:47.486Z,98848.91
2022-10-12T07:22:29.796Z,98845.97
2022-10-12T07:25:18.509Z,98840.75
2022-10-12T07:28:00.817Z,98841.13
2022-10-12T07:30:44.495Z,98827.19
2022-10-12T07:33:33.098Z,98818.91
2022-10-12T07:36:20.912Z,98821.13
2022-10-12T07:39:09.831Z,98813.78
2022-10-12T07:41:52.495Z,98810.88
2022-10-12T07:44:41.548Z,98807.81
2022-10-12T07:47:23.784Z,98804.53
2022-10-12T07:50:12.476Z,98798.91
2022-10-12T07:52:54.803Z,98804.06
2022-10-12T07:55:43.540Z,98797.06
2022-10-12T07:58:25.836Z,98792.16
2022-10-12T08:01:15.562Z,98781.63
2022-10-12T08:04:05.401Z,98785.28
2022-10-12T08:07:00.491Z,98768.06
2022-10-12T08:09:48.756Z,98763.53
2022-10-12T08:12:31.484Z,98755.53
2022-10-12T08:15:21.849Z,98744.06
2022-10-12T08:18:04.575Z,98747.09
2022-10-12T08:20:52.840Z,98736.78
2022-10-12T08:23:35.485Z,98727.53
2022-10-12T08:26:24.474Z,98728.78
2022-10-12T08:29:06.767Z,98722.41
2022-10-12T08:31:58.535Z,98714.25
2022-10-12T08:34:40.810Z,98712.09
2022-10-12T08:37:29.486Z,98710.47
2022-10-12T08:40:11.759Z,98710.06
2022-10-12T08:43:19.594Z,98709.75
2022-10-12T08:46:08.776Z,98704.69
2022-10-12T08:49:06.539Z,98703.34
2022-10-12T08:51:57.761Z,98706.34
2022-10-12T08:54:51.494Z,98702.75
2022-10-12T08:57:33.760Z,98694.78
2022-10-12T09:00:24.520Z,98688.44
2022-10-12T09:03:18.775Z,98691.13
2022-10-12T09:06:24.501Z,98684.81
2022-10-12T09:09:50.492Z,98675.47
2022-10-12T09:12:59.788Z,98669.38
2022-10-12T09:15:59.554Z,98668.41
2022-10-12T09:18:48.814Z,98661.75
2022-10-12T09:21:40.483Z,98662.16
2022-10-12T09:24:33.754Z,98659.88
2022-10-12T09:27:28.472Z,98648.97
2022-10-12T09:30:12.752Z,98652.03
2022-10-12T09:33:18.500Z,98654.34
2022-10-12T09:36:02.822Z,98653.19
2022-10-12T09:38:51.495Z,98650.22
2022-10-12T09:41:47.771Z,98643.59
2022-10-12T09:44:42.517Z,98646.22
2022-10-12T09:47:31.155Z,98640.44
2022-10-12T09:50:20.486Z,98636.63
2022-10-12T09:53:09.511Z,98638.34
2022-10-12T09:56:56.379Z,98634.13
2022-10-12T09:59:44.502Z,98626.59
2022-10-12T10:02:34.474Z,98624.16
2022-10-12T10:05:35.768Z,98618.16
2022-10-12T10:08:30.481Z,98618.81
2022-10-12T10:11:20.505Z,98615.22
2022-10-12T10:14:09.824Z,98613.97
2022-10-12T10:16:59.461Z,98610.25
2022-10-12T10:19:41.744Z,98607.13
2022-10-12T10:22:31.480Z,98600.84
2022-10-12T10:25:28.811Z,98601.16
2022-10-12T10:28:35.600Z,98599.66
2022-10-12T10:31:30.380Z,98608.72
2022-10-12T10:34:30.483Z,98602.63
2022-10-12T10:37:29.742Z,98599.66
2022-10-12T10:40:13.769Z,98598.88
2022-10-12T10:43:10.598Z,98593.31
2022-10-12T10:46:06.557Z,98594.22
2022-10-12T10:49:44.420Z,98601.94
2022-10-12T10:52:33.506Z,98601.28
2022-10-12T10:55:29.763Z,98589.22
2022-10-12T10:58:38.469Z,98587.47
2022-10-12T11:01:42.598Z,98584.78
2022-10-12T11:04:34.839Z,98588.25
2022-10-12T11:07:38.504Z,98580.53
2022-10-12T11:10:41.480Z,98589.63
2022-10-12T11:13:32.783Z,98584.41
2022-10-12T11:16:32.489Z,98583.75
2022-10-12T11:19:43.351Z,98587.44
2022-10-12T11:22:54.479Z,98569.00
2022-10-12T11:25:57.810Z,98576.50
2022-10-12T11:28:46.963Z,98583.28
2022-10-12T11:32:00.529Z,98584.31
2022-10-12T11:35:00.798Z,98579.59
2022-10-12T11:37:56.486Z,98580.88
2022-10-12T11:41:13.676Z,98576.72
2022-10-12T11:44:36.403Z,98585.13
2022-10-12T11:47:54.468Z,98581.00
2022-10-12T11:50:58.961Z,98578.22
2022-10-12T11:54:17.750Z,98578.47
2022-10-12T11:57:05.547Z,98576.63
2022-10-12T12:00:08.804Z,98582.16
2022-10-12T12:03:00.494Z,98586.72
2022-10-12T12:05:48.839Z,98590.03
2022-10-12T12:08:49.566Z,98579.59
2022-10-12T12:11:34.801Z,98586.38
2022-10-12T12:14:29.567Z,98588.16
2022-10-12T12:17:31.782Z,98581.88
2022-10-12T12:20:57.670Z,98587.38
2022-10-12T12:23:58.763Z,98586.69
2022-10-12T12:26:55.511Z,98587.13
2022-10-12T12:29:37.755Z,98580.22
2022-10-12T12:32:27.538Z,98583.31
2022-10-12T12:35:09.764Z,98584.94
2022-10-12T12:38:11.492Z,98586.19
2022-10-12T12:41:18.750Z,98589.75
2022-10-12T12:44:11.502Z,98587.13
2022-10-12T12:47:05.992Z,98591.16
2022-10-12T12:50:05.501Z,98594.94
2022-10-12T12:52:48.912Z,98594.28
2022-10-12T12:56:05.490Z,98597.97
2022-10-12T12:58:59.550Z,98598.84
2022-10-12T13:02:09.599Z,98597.78
2022-10-12T13:05:03.951Z,98603.44
2022-10-12T13:08:15.472Z,98610.44
2022-10-12T13:11:31.498Z,98600.56
2022-10-12T13:14:35.529Z,98613.69
2022-10-12T13:17:43.040Z,98619.75
2022-10-12T13:20:39.506Z,98621.47
2022-10-12T13:23:26.753Z,98618.09
2022-10-12T13:26:17.490Z,98622.53
2022-10-12T13:29:02.015Z,98631.28
2022-10-12T13:31:54.808Z,98631.47
2022-10-12T13:34:44.770Z,98628.03
2022-10-12T13:37:39.532Z,98636.66
2022-10-12T13:41:11.792Z,98636.50
2022-10-12T13:44:04.480Z,98635.09
2022-10-12T13:46:56.514Z,98635.94
2022-10-12T13:49:47.817Z,98633.38
2022-10-12T13:52:42.547Z,98638.75
2022-10-12T13:55:33.768Z,98640.72
2022-10-12T13:58:30.505Z,98637.97
2022-10-12T14:01:14.804Z,98636.69
2022-10-12T14:04:03.546Z,98647.56
2022-10-12T14:07:05.405Z,98641.22
2022-10-12T14:09:59.590Z,98651.00
2022-10-12T14:12:51.510Z,98661.72
2022-10-12T14:15:46.748Z,98645.50
2022-10-12T14:18:52.485Z,98656.63
2022-10-12T14:21:40.744Z,98644.13
2022-10-12T14:24:27.786Z,98650.09
2022-10-12T14:27:16.782Z,98649.44
2022-10-12T14:30:03.497Z,98649.41
2022-10-12T14:32:54.046Z,98645.50
2022-10-12T14:35:40.964Z,98648.84
2022-10-12T14:38:53.783Z,98646.44
2022-10-12T14:41:51.539Z,98649.53
2022-10-12T14:44:50.840Z,98647.47
2022-10-12T14:47:50.514Z,98655.75
2022-10-12T14:50:41.032Z,98653.78
2022-10-12T14:53:23.476Z,98651.88
2022-10-12T14:56:05.487Z,98659.19
2022-10-12T14:58:53.748Z,98652.56
2022-10-12T15:01:40.947Z,98665.19
2022-10-12T15:04:24.671Z,98660.97
2022-10-12T15:07:14.529Z,98656.47
2022-10-12T15:09:57.437Z,98654.34
2022-10-12T15:12:46.461Z,98657.44
2022-10-12T15:15:43.489Z,98657.28
2022-10-12T15:18:26.610Z,98654.50
2022-10-12T15:21:16.815Z,98652.72
2022-10-12T15:23:58.487Z,98650.78
2022-10-12T15:26:47.388Z,98655.81
2022-10-12T15:29:36.495Z,98651.25
2022-10-12T15:32:20.712Z,98655.47
2022-10-12T15:35:09.523Z,98662.59
2022-10-12T15:37:58.810Z,98665.69
2022-10-12T15:40:42.784Z,98665.66
2022-10-12T15:43:34.747Z,98663.81
2022-10-12T15:46:21.487Z,98660.63
2022-10-12T15:49:10.984Z,98659.00
2022-10-12T15:51:59.528Z,98668.22
2022-10-12T15:54:45.517Z,98673.38
2022-10-12T15:57:37.463Z,98665.59
2022-10-12T16:00:27.120Z,98668.84
2022-10-12T16:03:20.243Z,98677.94
2022-10-12T16:06:14.530Z,98673.53
2022-10-12T16:09:02.927Z,98671.28
2022-10-12T16:11:45.505Z,98673.53
2022-10-12T16:14:28.177Z,98676.78
2022-10-12T16:17:17.627Z,98673.66
2022-10-12T16:20:00.135Z,98675.28
2022-10-12T16:22:50.497Z,98670.13
2022-10-12T16:25:32.895Z,98676.94
2022-10-12T16:28:21.534Z,98677.75
2022-10-12T16:31:03.855Z,98675.00
2022-10-12T16:33:52.466Z,98682.41
2022-10-12T16:36:34.932Z,98674.16
2022-10-12T16:39:24.544Z,98675.44
2022-10-12T16:42:13.939Z,98677.88
2022-10-12T16:44:57.540Z,98678.03
2022-10-12T16:47:47.832Z,98668.47
2022-10-12T16:50:31.482Z,98667.03
2022-10-12T16:53:20.827Z,98668.53
2022-10-12T16:56:03.526Z,98674.81
2022-10-12T16:58:52.484Z,98668.97
2022-10-12T17:01:34.839Z,98670.44
2022-10-12T17:04:23.530Z,98664.13
2022-10-12T17:07:19.315Z,98664.44
2022-10-12T17:10:08.468Z,98669.09
2022-10-12T17:12:57.411Z,98663.59
2022-10-12T17:15:50.468Z,98667.19
2022-10-12T17:18:32.890Z,98659.06
2022-10-12T17:21:21.718Z,98660.06
2022-10-12T17:24:05.830Z,98657.63
2022-10-12T17:26:55.470Z,98663.38
2022-10-12T17:29:40.621Z,98665.81
2022-10-12T17:32:29.564Z,98663.19
2022-10-12T17:35:12.975Z,98658.88
2022-10-12T17:38:01.474Z,98659.19
2022-10-12T17:40:53.543Z,98656.88
2022-10-12T17:43:43.830Z,98656.53
2022-10-12T17:46:25.496Z,98659.38
2022-10-12T17:49:15.510Z,98660.50
2022-10-12T17:51:58.046Z,98657.59
2022-10-12T17:54:47.494Z,98653.16
2022-10-12T17:57:29.941Z,98654.97
2022-10-12T18:00:19.874Z,98657.22
2022-10-12T18:03:01.956Z,98666.91
2022-10-12T18:05:50.452Z,98658.75
2022-10-12T18:08:46.533Z,98658.75
2022-10-12T18:11:34.744Z,98654.25
2022-10-12T18:14:19.484Z,98654.25
2022-10-12T18:17:08.572Z,98662.16
2022-10-12T18:19:50.841Z,98664.41
2022-10-12T18:22:39.605Z,98661.81
2022-10-12T18:25:21.925Z,98657.56
2022-10-12T18:28:10.525Z,98651.53
2022-10-12T18:30:58.873Z,98654.22
2022-10-12T18:33:48.509Z,98658.91
2022-10-12T18:36:30.781Z,98661.66
2022-10-12T18:39:19.518Z,98657.81
2022-10-12T18:42:01.844Z,98656.22
2022-10-12T18:44:50.446Z,98661.22
2022-10-12T18:47:32.980Z,98657.91
2022-10-12T18:50:21.472Z,98657.50
2022-10-12T18:53:03.925Z,98654.56
2022-10-12T18:55:52.480Z,98653.03
2022-10-12T18:58:34.900Z,98652.09
2022-10-12T19:01:26.456Z,98656.75
2022-10-12T19:04:09.842Z,98655.03
2022-10-12T19:06:58.462Z,98645.16
2022-10-12T19:09:53.830Z,98654.03
2022-10-12T19:12:45.836Z,98651.13
2022-10-12T19:15:28.468Z,98648.16
2022-10-12T19:18:10.644Z,98652.22
2022-10-12T19:20:59.502Z,98653.53
2022-10-12T19:23:49.757Z,98647.13
2022-10-12T19:26:35.475Z,98646.81
2022-10-12T19:29:17.713Z,98650.41
2022-10-12T19:32:06.544Z,98644.06
2022-10-12T19:34:57.812Z,98636.78
2022-10-12T19:37:40.529Z,98645.63
2022-10-12T19:40:22.695Z,98637.38
2022-10-12T19:43:11.509Z,98645.78
2022-10-12T19:45:59.746Z,98638.84
2022-10-12T19:48:42.561Z,98637.53
2022-10-12T19:51:33.587Z,98642.34
2022-10-12T19:54:19.453Z,98640.28
2022-10-12T19:57:07.758Z,98646.88
2022-10-12T19:59:50.526Z,98640.81
2022-10-12T20:02:42.247Z,98639.69
2022-10-12T20:05:25.483Z,98635.81
2022-10-12T20:08:13.725Z,98643.34
2022-10-12T20:10:55.820Z,98632.16
2022-10-12T20:13:44.716Z,98642.25
2022-10-12T20:16:32.488Z,98637.91
2022-10-12T20:19:23.789Z,98631.38
2022-10-12T20:22:05.433Z,98625.53
2022-10-12T20:24:47.618Z,98635.25
2022-10-12T20:27:36.448Z,98634.88
2022-10-12T20:30:18.763Z,98636.50
2022-10-12T20:33:08.437Z,98638.91
2022-10-12T20:35:58.380Z,98638.13
2022-10-12T20:38:47.443Z,98642.31
2022-10-12T20:41:36.643Z,98637.72
2022-10-12T20:44:25.445Z,98638.88
2022-10-12T20:47:07.621Z,98641.81
2022-10-12T20:49:57.513Z,98641.16
2022-10-12T20:52:45.743Z,98639.25
2022-10-12T20:55:28.482Z,98633.44
2022-10-12T20:58:11.788Z,98630.69
2022-10-12T21:01:00.459Z,98631.63
2022-10-12T21:03:43.487Z,98646.59
2022-10-12T21:06:32.502Z,98638.47
2022-10-12T21:09:22.744Z,98642.22
2022-10-12T21:12:04.740Z,98640.91
2022-10-12T21:14:52.720Z,98644.34
2022-10-12T21:17:34.434Z,98641.72
2022-10-12T21:20:23.438Z,98643.47
2022-10-12T21:23:05.722Z,98647.69
2022-10-12T21:25:54.493Z,98643.66
2022-10-12T21:28:36.770Z,98638.66
2022-10-12T21:31:31.007Z,98638.88
2022-10-12T21:34:15.824Z,98635.41
2022-10-12T21:37:04.475Z,98639.28
2022-10-12T21:39:49.576Z,98644.25
2022-10-12T21:42:40.486Z,98645.69
2022-10-12T21:45:22.696Z,98648.53
2022-10-12T21:48:11.434Z,98643.56
2022-10-12T21:51:00.426Z,98642.44
2022-10-12T21:53:43.159Z,98648.13
2022-10-12T21:56:35.433Z,98642.44
2022-10-12T21:59:17.652Z,98648.53
2022-10-12T22:02:06.610Z,98651.50
2022-10-12T22:04:50.701Z,98649.75
2022-10-12T22:07:39.439Z,98653.63
2022-10-12T22:10:28.337Z,98653.84
2022-10-12T22:13:17.427Z,98651.19
2022-10-12T22:16:09.015Z,98647.94
2022-10-12T22:18:58.418Z,98647.94
2022-10-12T22:21:47.471Z,98655.47
2022-10-12T22:24:35.765Z,98646.72
2022-10-12T22:27:26.457Z,98650.59
2022-10-12T22:30:08.730Z,98651.19
2022-10-12T22:32:57.488Z,98643.59
2022-10-12T22:35:40.717Z,98646.94
2022-10-12T22:38:29.419Z,98648.16
2022-10-12T22:41:14.720Z,98647.22
2022-10-12T22:44:04.399Z,98653.03
2022-10-12T22:46:53.423Z,98652.91
2022-10-12T22:49:35.613Z,98650.91
2022-10-12T22:52:24.450Z,98654.66
2022-10-12T22:55:06.976Z,98657.31
2022-10-12T22:57:55.462Z,98658.69
2022-10-12T23:00:44.798Z,98656.28
2022-10-12T23:03:27.409Z,98663.81
2022-10-12T23:06:21.343Z,98660.63
2022-10-12T23:09:17.415Z,98658.69
2022-10-12T23:12:00.598Z,98659.84
2022-10-12T23:14:49.422Z,98666.63
2022-10-12T23:17:37.709Z,98664.38
2022-10-12T23:20:20.468Z,98665.63
2022-10-12T23:23:02.672Z,98664.38
2022-10-12T23:25:54.432Z,98670.50
2022-10-12T23:28:36.677Z,98665.03
2022-10-12T23:31:34.476Z,98663.38
2022-10-12T23:34:22.749Z,98657.91
2022-10-12T23:37:04.404Z,98666.03
2022-10-12T23:39:46.601Z,98661.38
2022-10-12T23:42:35.479Z,98668.66
2022-10-12T23:45:24.722Z,98674.16
2022-10-12T23:48:07.417Z,98674.97
2022-10-12T23:50:52.832Z,98672.03
2022-10-12T23:53:42.420Z,98674.47
2022-10-12T23:56:30.676Z,98666.75
2022-10-12T23:59:12.482Z,98684.81
